createdAt,value
2019-06-20T00:00:36.110Z,65.60
2019-06-20T00:02:40.810Z,65.90
2019-06-20T00:04:45.555Z,65.80
2019-06-20T00:06:50.236Z,65.80
2019-06-20T00:08:55.016Z,65.90
2019-06-20T00:10:59.690Z,66.10
2019-06-20T00:13:04.892Z,66.00
2019-06-20T00:15:09.666Z,66.10
2019-06-20T00:17:14.418Z,66.30
2019-06-20T00:19:19.170Z,66.20
2019-06-20T00:21:24.004Z,66.20
2019-06-20T00:23:28.670Z,66.10
2019-06-20T00:25:33.363Z,66.10
2019-06-20T00:27:38.118Z,66.00
2019-06-20T00:29:42.890Z,66.10
2019-06-20T00:31:47.656Z,66.10
2019-06-20T00:33:52.336Z,65.90
2019-06-20T00:35:57.103Z,66.00
2019-06-20T00:38:02.964Z,66.80
2019-06-20T00:40:08.144Z,66.00
2019-06-20T00:42:12.899Z,66.40
2019-06-20T00:44:17.683Z,66.20
2019-06-20T00:46:22.470Z,66.40
2019-06-20T00:48:27.216Z,66.50
2019-06-20T00:50:31.917Z,66.60
2019-06-20T00:52:36.629Z,66.50
2019-06-20T00:54:41.314Z,66.50
2019-06-20T00:56:58.946Z,66.50
2019-06-20T00:59:03.700Z,66.50
2019-06-20T01:01:08.387Z,66.40
2019-06-20T01:03:13.157Z,66.50
2019-06-20T01:05:17.885Z,66.50
2019-06-20T01:07:22.630Z,66.60
2019-06-20T01:09:27.431Z,66.40
2019-06-20T01:11:32.203Z,66.50
2019-06-20T01:13:36.906Z,66.60
2019-06-20T01:15:41.682Z,66.50
2019-06-20T01:17:46.395Z,66.70
2019-06-20T01:19:51.137Z,66.60
2019-06-20T01:21:56.543Z,66.90
2019-06-20T01:24:02.298Z,66.80
2019-06-20T01:26:07.053Z,66.80
2019-06-20T01:28:11.764Z,66.60
2019-06-20T01:30:16.659Z,66.60
2019-06-20T01:32:21.324Z,66.80
2019-06-20T01:34:26.027Z,66.80
2019-06-20T01:36:30.785Z,66.90
2019-06-20T01:38:35.453Z,66.90
2019-06-20T01:40:40.173Z,66.70
2019-06-20T01:42:45.091Z,66.80
2019-06-20T01:44:49.843Z,66.60
2019-06-20T01:46:54.562Z,66.70
2019-06-20T01:48:59.313Z,66.80
2019-06-20T01:51:04.076Z,66.60
2019-06-20T01:53:08.863Z,66.50
2019-06-20T01:55:13.547Z,66.50
2019-06-20T01:57:18.311Z,66.80
2019-06-20T01:59:23.102Z,66.70
2019-06-20T02:01:27.858Z,66.90
2019-06-20T02:03:32.983Z,67.00
2019-06-20T02:05:37.818Z,67.00
2019-06-20T02:07:42.504Z,66.90
2019-06-20T02:09:47.313Z,66.90
2019-06-20T02:11:52.050Z,66.90
2019-06-20T02:14:06.890Z,67.00
2019-06-20T02:16:03.334Z,67.20
2019-06-20T02:18:08.092Z,67.40
2019-06-20T02:20:32.647Z,67.40
2019-06-20T02:22:37.354Z,67.30
2019-06-20T02:24:42.383Z,67.40
2019-06-20T02:26:47.140Z,67.30
2019-06-20T02:28:51.937Z,67.30
2019-06-20T02:30:56.625Z,67.20
2019-06-20T02:33:01.399Z,67.30
2019-06-20T02:35:07.043Z,67.30
2019-06-20T02:37:11.796Z,67.40
2019-06-20T02:39:16.542Z,67.60
2019-06-20T02:41:21.280Z,67.70
2019-06-20T02:43:26.021Z,67.50
2019-06-20T02:45:30.795Z,67.60
2019-06-20T02:47:35.544Z,67.60
2019-06-20T02:49:40.227Z,67.60
2019-06-20T02:51:46.050Z,67.90
2019-06-20T02:53:50.856Z,67.80
2019-06-20T02:55:55.585Z,67.70
2019-06-20T02:58:00.331Z,67.70
2019-06-20T03:00:09.586Z,67.60
2019-06-20T03:02:14.347Z,67.40
2019-06-20T03:04:19.101Z,67.20
2019-06-20T03:06:23.865Z,67.40
2019-06-20T03:08:28.614Z,67.40
2019-06-20T03:10:33.413Z,67.50
2019-06-20T03:12:38.242Z,67.50
2019-06-20T03:14:45.700Z,67.70
2019-06-20T03:16:49.349Z,67.70
2019-06-20T03:18:54.089Z,67.70
2019-06-20T03:20:58.870Z,67.50
2019-06-20T03:23:03.633Z,67.40
2019-06-20T03:25:28.823Z,68.20
2019-06-20T03:27:33.577Z,67.40
2019-06-20T03:29:38.337Z,67.50
2019-06-20T03:31:43.067Z,67.50
2019-06-20T03:33:47.834Z,67.40
2019-06-20T03:35:52.570Z,67.20
2019-06-20T03:37:57.279Z,67.30
2019-06-20T03:40:02.090Z,67.20
2019-06-20T03:42:06.877Z,67.20
2019-06-20T03:44:11.632Z,67.10
2019-06-20T03:46:16.389Z,67.20
2019-06-20T03:48:21.177Z,67.10
2019-06-20T03:50:25.856Z,67.10
2019-06-20T03:52:30.613Z,67.10
2019-06-20T03:54:35.303Z,66.90
2019-06-20T03:56:39.979Z,67.00
2019-06-20T03:58:44.754Z,67.10
2019-06-20T04:00:49.530Z,67.10
2019-06-20T04:02:54.282Z,67.10
2019-06-20T04:04:59.055Z,67.00
2019-06-20T04:07:03.813Z,67.10
2019-06-20T04:09:08.513Z,67.20
2019-06-20T04:11:13.652Z,67.00
2019-06-20T04:13:18.370Z,67.00
2019-06-20T04:15:23.049Z,67.20
2019-06-20T04:17:27.817Z,67.30
2019-06-20T04:19:32.574Z,67.40
2019-06-20T04:21:37.386Z,67.60
2019-06-20T04:23:42.324Z,67.70
2019-06-20T04:25:47.063Z,67.70
2019-06-20T04:27:51.902Z,67.70
2019-06-20T04:29:56.668Z,67.80
2019-06-20T04:32:01.424Z,67.70
2019-06-20T04:34:06.193Z,67.80
2019-06-20T04:36:10.956Z,67.70
2019-06-20T04:38:15.706Z,67.70
2019-06-20T04:40:20.465Z,67.70
2019-06-20T04:42:25.256Z,67.60
2019-06-20T04:44:30.009Z,67.60
2019-06-20T04:46:40.436Z,67.70
2019-06-20T04:48:45.170Z,67.70
2019-06-20T04:50:49.856Z,67.60
2019-06-20T04:52:54.606Z,67.70
2019-06-20T04:54:59.320Z,67.70
2019-06-20T04:57:04.142Z,67.70
2019-06-20T04:59:08.843Z,67.10
2019-06-20T05:01:13.525Z,67.80
2019-06-20T05:03:18.309Z,67.80
2019-06-20T05:05:23.068Z,67.70
2019-06-20T05:07:27.850Z,67.60
2019-06-20T05:09:32.605Z,67.90
2019-06-20T05:11:37.326Z,67.80
2019-06-20T05:13:42.085Z,67.70
2019-06-20T05:15:52.499Z,67.40
2019-06-20T05:17:53.606Z,67.50
2019-06-20T05:19:58.410Z,67.60
2019-06-20T05:22:03.138Z,67.40
2019-06-20T05:24:07.906Z,67.40
2019-06-20T05:26:12.573Z,67.20
2019-06-20T05:28:17.334Z,67.30
2019-06-20T05:30:22.095Z,67.10
2019-06-20T05:32:26.774Z,67.00
2019-06-20T05:34:31.548Z,66.90
2019-06-20T05:36:37.360Z,66.90
2019-06-20T05:38:42.095Z,66.90
2019-06-20T05:40:46.946Z,66.80
2019-06-20T05:42:51.793Z,66.80
2019-06-20T05:44:56.755Z,67.00
2019-06-20T05:47:11.859Z,67.80
2019-06-20T05:49:07.882Z,66.70
2019-06-20T05:51:12.616Z,66.60
2019-06-20T05:53:17.330Z,66.60
2019-06-20T05:55:22.066Z,66.60
2019-06-20T05:57:26.748Z,66.60
2019-06-20T05:59:31.509Z,66.50
2019-06-20T06:01:36.267Z,66.30
2019-06-20T06:03:41.069Z,66.40
2019-06-20T06:05:45.828Z,66.40
2019-06-20T06:07:50.560Z,66.30
2019-06-20T06:09:55.263Z,66.20
2019-06-20T06:11:59.931Z,66.00
2019-06-20T06:14:04.667Z,65.60
2019-06-20T06:16:25.160Z,65.60
2019-06-20T06:18:16.873Z,65.70
2019-06-20T06:20:21.533Z,65.50
2019-06-20T06:22:26.227Z,65.40
2019-06-20T06:24:30.895Z,65.50
2019-06-20T06:26:35.681Z,65.20
2019-06-20T06:28:40.370Z,64.80
2019-06-20T06:30:45.114Z,65.00
2019-06-20T06:32:49.900Z,65.00
2019-06-20T06:34:54.638Z,65.00
2019-06-20T06:36:59.407Z,65.00
2019-06-20T06:39:09.308Z,65.00
2019-06-20T06:41:14.115Z,65.10
2019-06-20T06:43:18.825Z,65.10
2019-06-20T06:45:23.634Z,65.10
2019-06-20T06:47:28.378Z,64.90
2019-06-20T06:49:33.054Z,64.80
2019-06-20T06:51:38.366Z,65.00
2019-06-20T06:53:43.208Z,64.60
2019-06-20T06:55:47.960Z,64.70
2019-06-20T06:57:52.716Z,65.00
2019-06-20T06:59:57.404Z,64.90
2019-06-20T07:02:02.086Z,64.70
2019-06-20T07:04:06.818Z,64.60
2019-06-20T07:06:11.504Z,64.60
2019-06-20T07:08:35.635Z,64.40
2019-06-20T07:10:40.395Z,64.60
2019-06-20T07:12:45.134Z,65.30
2019-06-20T07:14:49.872Z,64.70
2019-06-20T07:17:00.254Z,64.70
2019-06-20T07:19:00.956Z,64.50
2019-06-20T07:21:05.657Z,64.70
2019-06-20T07:23:10.422Z,64.90
2019-06-20T07:25:15.157Z,64.80
2019-06-20T07:27:19.930Z,64.80
2019-06-20T07:29:24.736Z,65.10
2019-06-20T07:31:29.483Z,65.20
2019-06-20T07:33:34.226Z,65.30
2019-06-20T07:35:41.722Z,65.00
2019-06-20T07:37:45.375Z,65.00
2019-06-20T07:39:50.048Z,65.00
2019-06-20T07:41:54.823Z,64.70
2019-06-20T07:43:59.479Z,64.60
2019-06-20T07:46:05.157Z,64.60
2019-06-20T07:48:09.897Z,64.20
2019-06-20T07:50:14.825Z,64.30
2019-06-20T07:52:19.517Z,64.40
2019-06-20T07:54:24.210Z,64.50
2019-06-20T07:56:48.421Z,64.40
2019-06-20T07:58:53.157Z,64.70
2019-06-20T08:00:57.895Z,64.40
2019-06-20T08:03:02.673Z,64.40
2019-06-20T08:05:07.491Z,64.00
2019-06-20T08:07:12.169Z,63.60
2019-06-20T08:09:16.935Z,63.00
2019-06-20T08:11:21.670Z,62.80
2019-06-20T08:13:26.366Z,62.80
2019-06-20T08:15:31.117Z,62.60
2019-06-20T08:17:35.983Z,62.50
2019-06-20T08:19:40.821Z,62.50
2019-06-20T08:21:45.567Z,62.40
2019-06-20T08:23:50.337Z,62.20
2019-06-20T08:25:55.751Z,62.20
2019-06-20T08:28:02.461Z,62.00
2019-06-20T08:30:08.373Z,61.80
2019-06-20T08:32:13.190Z,61.90
2019-06-20T08:34:17.924Z,61.90
2019-06-20T08:36:22.667Z,61.90
2019-06-20T08:38:27.439Z,61.90
2019-06-20T08:40:33.406Z,61.60
2019-06-20T08:42:38.145Z,61.60
2019-06-20T08:44:42.871Z,62.00
2019-06-20T08:46:47.572Z,62.60
2019-06-20T08:48:52.308Z,62.90
2019-06-20T08:50:58.500Z,63.40
2019-06-20T08:53:03.775Z,63.30
2019-06-20T08:55:08.508Z,63.30
2019-06-20T08:57:13.247Z,63.40
2019-06-20T08:59:24.365Z,63.20
2019-06-20T09:01:24.382Z,63.00
2019-06-20T09:03:29.133Z,63.10
2019-06-20T09:05:33.879Z,62.90
2019-06-20T09:07:41.690Z,62.50
2019-06-20T09:09:45.975Z,62.80
2019-06-20T09:11:50.645Z,62.90
2019-06-20T09:13:55.506Z,63.10
2019-06-20T09:16:00.952Z,63.10
2019-06-20T09:18:05.824Z,63.00
2019-06-20T09:20:13.812Z,63.00
2019-06-20T09:22:18.508Z,63.00
2019-06-20T09:24:23.181Z,62.80
2019-06-20T09:26:27.848Z,62.70
2019-06-20T09:28:32.536Z,62.20
2019-06-20T09:30:37.672Z,61.90
2019-06-20T09:32:42.394Z,61.40
2019-06-20T09:34:47.134Z,61.20
2019-06-20T09:36:52.615Z,61.70
2019-06-20T09:38:59.579Z,60.70
2019-06-20T09:41:04.487Z,60.30
2019-06-20T09:43:09.239Z,60.30
2019-06-20T09:45:14.875Z,60.20
2019-06-20T09:47:19.542Z,60.10
2019-06-20T09:49:24.294Z,59.70
2019-06-20T09:51:29.056Z,59.90
2019-06-20T09:53:33.780Z,60.20
2019-06-20T09:55:38.470Z,60.30
2019-06-20T09:57:43.371Z,59.80
2019-06-20T09:59:58.913Z,59.40
2019-06-20T10:01:56.429Z,59.70
2019-06-20T10:04:00.931Z,59.10
2019-06-20T10:06:13.178Z,59.90
2019-06-20T10:08:12.055Z,60.20
2019-06-20T10:10:18.613Z,60.20
2019-06-20T10:12:23.344Z,60.00
2019-06-20T10:14:28.125Z,59.70
2019-06-20T10:16:45.276Z,59.40
2019-06-20T10:18:39.220Z,59.10
2019-06-20T10:20:44.415Z,59.20
2019-06-20T10:22:50.975Z,59.30
2019-06-20T10:24:55.837Z,59.40
2019-06-20T10:27:00.579Z,59.50
2019-06-20T10:29:05.320Z,59.50
2019-06-20T10:31:10.045Z,58.70
2019-06-20T10:33:14.731Z,59.00
2019-06-20T10:35:19.555Z,59.00
2019-06-20T10:37:24.309Z,58.70
2019-06-20T10:39:28.969Z,58.90
2019-06-20T10:41:33.740Z,58.60
2019-06-20T10:43:38.503Z,58.70
2019-06-20T10:45:44.672Z,58.50
2019-06-20T10:47:50.925Z,58.30
2019-06-20T10:49:55.827Z,58.30
2019-06-20T10:52:00.498Z,58.30
2019-06-20T10:54:05.444Z,58.20
2019-06-20T10:56:10.139Z,58.10
2019-06-20T10:58:14.877Z,58.40
2019-06-20T11:00:30.362Z,58.30
2019-06-20T11:02:26.041Z,58.60
2019-06-20T11:04:31.847Z,58.60
2019-06-20T11:06:36.591Z,58.40
2019-06-20T11:08:42.212Z,58.50
2019-06-20T11:10:49.204Z,58.40
2019-06-20T11:12:56.125Z,58.60
2019-06-20T11:15:00.441Z,58.70
2019-06-20T11:17:05.190Z,58.60
2019-06-20T11:19:09.917Z,59.00
2019-06-20T11:21:14.598Z,58.80
2019-06-20T11:23:19.263Z,58.90
2019-06-20T11:25:24.001Z,58.50
2019-06-20T11:27:28.996Z,58.20
2019-06-20T11:29:33.674Z,58.10
2019-06-20T11:31:42.631Z,58.10
2019-06-20T11:33:44.772Z,57.90
2019-06-20T11:35:49.539Z,57.80
2019-06-20T11:37:54.298Z,57.60
2019-06-20T11:39:58.959Z,57.60
2019-06-20T11:42:03.715Z,57.40
2019-06-20T11:44:08.400Z,57.60
2019-06-20T11:46:13.144Z,57.10
2019-06-20T11:48:17.804Z,57.10
2019-06-20T11:50:23.704Z,57.30
2019-06-20T11:52:28.442Z,57.30
2019-06-20T11:54:34.366Z,57.30
2019-06-20T11:56:39.271Z,57.30
2019-06-20T11:58:43.992Z,58.30
2019-06-20T12:01:03.119Z,57.70
2019-06-20T12:02:55.098Z,57.60
2019-06-20T12:04:59.760Z,57.40
2019-06-20T12:07:04.438Z,57.00
2019-06-20T12:09:09.152Z,56.80
2019-06-20T12:11:13.893Z,56.80
2019-06-20T12:13:18.602Z,56.80
2019-06-20T12:15:23.510Z,56.60
2019-06-20T12:17:28.261Z,56.90
2019-06-20T12:19:32.965Z,56.90
2019-06-20T12:21:37.994Z,57.00
2019-06-20T12:23:44.950Z,57.10
2019-06-20T12:25:49.720Z,56.90
2019-06-20T12:27:55.544Z,56.70
2019-06-20T12:30:00.294Z,56.10
2019-06-20T12:32:04.958Z,56.40
2019-06-20T12:34:10.782Z,56.80
2019-06-20T12:36:15.440Z,56.70
2019-06-20T12:38:20.197Z,55.80
2019-06-20T12:40:24.886Z,55.80
2019-06-20T12:42:29.623Z,56.10
2019-06-20T12:44:34.308Z,55.80
2019-06-20T12:46:39.914Z,55.80
2019-06-20T12:48:46.946Z,55.60
2019-06-20T12:50:51.837Z,55.70
2019-06-20T12:52:56.618Z,55.00
2019-06-20T12:55:02.409Z,55.00
2019-06-20T12:57:07.079Z,55.00
2019-06-20T12:59:11.789Z,54.80
2019-06-20T13:01:16.457Z,54.60
2019-06-20T13:03:21.189Z,54.30
2019-06-20T13:05:25.972Z,54.10
2019-06-20T13:07:30.759Z,54.30
2019-06-20T13:09:35.454Z,54.20
2019-06-20T13:11:40.724Z,53.90
2019-06-20T13:13:46.603Z,53.80
2019-06-20T13:15:51.369Z,53.90
2019-06-20T13:17:56.521Z,54.00
2019-06-20T13:20:01.359Z,54.10
2019-06-20T13:22:06.075Z,54.10
2019-06-20T13:24:10.838Z,54.20
2019-06-20T13:26:15.588Z,54.40
2019-06-20T13:28:20.348Z,54.30
2019-06-20T13:30:25.146Z,54.40
2019-06-20T13:32:29.902Z,54.60
2019-06-20T13:34:34.655Z,54.60
2019-06-20T13:36:39.866Z,54.70
2019-06-20T13:38:46.711Z,54.90
2019-06-20T13:40:51.752Z,55.10
2019-06-20T13:42:56.513Z,55.00
2019-06-20T13:45:01.218Z,55.20
2019-06-20T13:47:05.965Z,55.10
2019-06-20T13:49:10.706Z,55.20
2019-06-20T13:51:15.445Z,55.20
2019-06-20T13:53:20.215Z,55.30
2019-06-20T13:55:25.056Z,55.40
2019-06-20T13:57:29.839Z,55.30
2019-06-20T13:59:34.907Z,55.30
2019-06-20T14:01:40.229Z,55.40
2019-06-20T14:03:47.011Z,55.50
2019-06-20T14:05:53.602Z,55.50
2019-06-20T14:07:59.414Z,55.40
2019-06-20T14:10:08.935Z,55.50
2019-06-20T14:12:13.682Z,55.60
2019-06-20T14:14:18.358Z,55.70
2019-06-20T14:16:23.078Z,55.60
2019-06-20T14:18:27.830Z,55.60
2019-06-20T14:20:32.560Z,55.70
2019-06-20T14:22:37.298Z,55.60
2019-06-20T14:24:43.387Z,55.50
2019-06-20T14:26:48.508Z,55.60
2019-06-20T14:28:53.265Z,55.50
2019-06-20T14:30:58.024Z,55.50
2019-06-20T14:33:02.844Z,55.30
2019-06-20T14:35:07.683Z,55.40
2019-06-20T14:37:12.355Z,55.40
2019-06-20T14:39:17.142Z,55.20
2019-06-20T14:41:22.531Z,55.60
2019-06-20T14:43:28.814Z,55.00
2019-06-20T14:45:37.888Z,55.70
2019-06-20T14:47:40.893Z,54.90
2019-06-20T14:49:45.566Z,54.80
2019-06-20T14:51:50.269Z,54.70
2019-06-20T14:53:55.006Z,54.50
2019-06-20T14:55:59.769Z,54.50
2019-06-20T14:58:04.550Z,54.40
2019-06-20T15:00:10.335Z,54.40
2019-06-20T15:02:15.787Z,54.40
2019-06-20T15:04:20.576Z,54.30
2019-06-20T15:06:38.077Z,54.20
2019-06-20T15:08:43.985Z,54.10
2019-06-20T15:10:50.264Z,54.10
2019-06-20T15:12:55.955Z,53.90
2019-06-20T15:15:02.022Z,53.90
2019-06-20T15:17:07.819Z,53.90
2019-06-20T15:19:12.608Z,53.80
2019-06-20T15:21:17.363Z,53.80
2019-06-20T15:23:23.162Z,53.50
2019-06-20T15:25:29.511Z,53.50
2019-06-20T15:27:34.281Z,53.30
2019-06-20T15:29:39.026Z,53.40
2019-06-20T15:31:43.909Z,53.30
2019-06-20T15:33:49.346Z,53.10
2019-06-20T15:35:56.568Z,53.10
2019-06-20T15:38:01.394Z,53.20
2019-06-20T15:40:07.847Z,53.40
2019-06-20T15:42:14.625Z,53.30
2019-06-20T15:44:19.809Z,53.20
2019-06-20T15:46:24.671Z,53.20
2019-06-20T15:48:29.402Z,55.10
2019-06-20T15:50:34.101Z,55.30
2019-06-20T15:52:38.763Z,55.40
2019-06-20T15:54:43.450Z,56.10
2019-06-20T15:56:48.213Z,55.70
2019-06-20T15:58:53.260Z,55.80
2019-06-20T16:00:58.000Z,55.90
2019-06-20T16:03:09.873Z,56.20
2019-06-20T16:05:09.417Z,56.30
2019-06-20T16:07:14.241Z,56.40
2019-06-20T16:09:19.030Z,56.50
2019-06-20T16:11:23.773Z,56.40
2019-06-20T16:13:28.508Z,56.40
2019-06-20T16:15:33.208Z,56.70
2019-06-20T16:17:37.952Z,56.70
2019-06-20T16:19:45.761Z,56.70
2019-06-20T16:21:50.507Z,56.70
2019-06-20T16:23:55.172Z,56.40
2019-06-20T16:26:01.102Z,57.00
2019-06-20T16:28:05.939Z,57.30
2019-06-20T16:30:10.708Z,57.20
2019-06-20T16:32:15.646Z,57.50
2019-06-20T16:34:21.485Z,57.60
2019-06-20T16:36:26.220Z,57.50
2019-06-20T16:38:30.922Z,57.70
2019-06-20T16:40:44.495Z,57.60
2019-06-20T16:42:49.227Z,57.50
2019-06-20T16:44:53.990Z,57.60
2019-06-20T16:46:59.218Z,57.70
2019-06-20T16:49:04.010Z,57.60
2019-06-20T16:51:08.709Z,57.80
2019-06-20T16:53:13.433Z,57.90
2019-06-20T16:55:18.204Z,57.70
2019-06-20T16:57:22.943Z,58.00
2019-06-20T16:59:27.716Z,58.10
2019-06-20T17:01:32.456Z,58.10
2019-06-20T17:03:41.573Z,58.10
2019-06-20T17:05:43.519Z,57.90
2019-06-20T17:07:49.684Z,57.80
2019-06-20T17:09:54.462Z,57.70
2019-06-20T17:11:59.171Z,57.60
2019-06-20T17:14:03.994Z,57.50
2019-06-20T17:16:08.693Z,57.60
2019-06-20T17:18:13.453Z,57.70
2019-06-20T17:20:18.407Z,57.50
2019-06-20T17:22:23.291Z,57.60
2019-06-20T17:24:27.985Z,57.40
2019-06-20T17:26:32.749Z,57.60
2019-06-20T17:28:37.499Z,57.90
2019-06-20T17:30:42.252Z,57.00
2019-06-20T17:32:47.091Z,57.10
2019-06-20T17:34:51.776Z,57.00
2019-06-20T17:36:56.495Z,57.00
2019-06-20T17:39:01.169Z,57.00
2019-06-20T17:41:07.462Z,57.30
2019-06-20T17:43:12.137Z,57.20
2019-06-20T17:45:16.931Z,57.20
2019-06-20T17:47:21.647Z,57.20
2019-06-20T17:49:27.000Z,57.40
2019-06-20T17:51:31.894Z,57.60
2019-06-20T17:53:36.599Z,57.50
2019-06-20T17:55:41.792Z,57.80
2019-06-20T17:57:46.536Z,57.60
2019-06-20T17:59:51.300Z,57.50
2019-06-20T18:01:55.963Z,57.20
2019-06-20T18:04:12.845Z,57.20
2019-06-20T18:06:07.103Z,57.30
2019-06-20T18:08:15.447Z,57.40
2019-06-20T18:10:19.999Z,57.10
2019-06-20T18:12:24.764Z,57.50
2019-06-20T18:14:29.510Z,57.60
2019-06-20T18:16:34.232Z,57.70
2019-06-20T18:18:38.994Z,57.40
2019-06-20T18:20:43.693Z,57.20
2019-06-20T18:22:48.434Z,57.40
2019-06-20T18:24:53.206Z,57.50
2019-06-20T18:26:57.962Z,57.60
2019-06-20T18:29:02.760Z,57.40
2019-06-20T18:31:07.504Z,57.30
2019-06-20T18:33:12.332Z,57.10
2019-06-20T18:35:17.052Z,57.10
2019-06-20T18:37:31.092Z,57.50
2019-06-20T18:39:28.100Z,57.10
2019-06-20T18:41:32.852Z,57.80
2019-06-20T18:43:37.519Z,57.00
2019-06-20T18:45:43.472Z,57.20
2019-06-20T18:47:48.250Z,57.50
2019-06-20T18:49:52.977Z,57.80
2019-06-20T18:51:57.716Z,57.50
2019-06-20T18:54:02.435Z,57.10
2019-06-20T18:56:07.156Z,57.10
2019-06-20T18:58:11.885Z,57.30
2019-06-20T19:00:16.655Z,57.20
2019-06-20T19:02:21.319Z,57.40
2019-06-20T19:04:26.015Z,57.50
2019-06-20T19:06:36.048Z,57.60
2019-06-20T19:08:37.148Z,57.70
2019-06-20T19:10:41.915Z,57.80
2019-06-20T19:12:46.657Z,57.80
2019-06-20T19:14:51.426Z,57.60
2019-06-20T19:16:56.169Z,57.80
2019-06-20T19:19:00.926Z,57.60
2019-06-20T19:21:05.606Z,57.90
2019-06-20T19:23:10.370Z,58.00
2019-06-20T19:25:15.110Z,58.20
2019-06-20T19:27:19.946Z,58.20
2019-06-20T19:29:24.679Z,58.00
2019-06-20T19:31:29.347Z,58.00
2019-06-20T19:33:35.171Z,57.60
2019-06-20T19:35:40.953Z,57.70
2019-06-20T19:37:45.814Z,57.90
2019-06-20T19:39:50.483Z,57.60
2019-06-20T19:41:55.278Z,57.70
2019-06-20T19:43:59.952Z,57.80
2019-06-20T19:46:04.719Z,57.90
2019-06-20T19:48:10.203Z,57.90
2019-06-20T19:50:14.973Z,57.80
2019-06-20T19:52:19.830Z,58.00
2019-06-20T19:54:24.580Z,57.80
2019-06-20T19:56:29.447Z,57.70
2019-06-20T19:58:34.792Z,57.70
2019-06-20T20:00:39.627Z,57.70
2019-06-20T20:02:44.349Z,57.80
2019-06-20T20:04:49.113Z,57.80
2019-06-20T20:06:53.926Z,57.90
2019-06-20T20:08:58.696Z,58.00
2019-06-20T20:11:03.467Z,57.90
2019-06-20T20:13:08.227Z,57.90
2019-06-20T20:15:12.972Z,57.60
2019-06-20T20:17:17.752Z,57.80
2019-06-20T20:19:22.514Z,57.60
2019-06-20T20:21:27.185Z,57.80
2019-06-20T20:23:31.913Z,57.60
2019-06-20T20:25:36.617Z,57.60
2019-06-20T20:27:41.291Z,57.40
2019-06-20T20:29:45.978Z,57.30
2019-06-20T20:31:50.752Z,57.50
2019-06-20T20:33:55.484Z,57.20
2019-06-20T20:36:02.027Z,57.50
2019-06-20T20:38:06.571Z,57.30
2019-06-20T20:40:12.392Z,57.40
2019-06-20T20:42:17.954Z,57.20
2019-06-20T20:44:22.666Z,57.40
2019-06-20T20:46:27.570Z,57.50
2019-06-20T20:48:32.307Z,57.60
2019-06-20T20:50:37.050Z,57.60
2019-06-20T20:52:41.812Z,57.40
2019-06-20T20:54:46.578Z,57.30
2019-06-20T20:56:51.302Z,57.20
2019-06-20T20:58:57.128Z,57.70
2019-06-20T21:01:23.426Z,57.60
2019-06-20T21:03:28.174Z,57.90
2019-06-20T21:05:32.931Z,57.80
2019-06-20T21:07:39.232Z,58.10
2019-06-20T21:09:44.108Z,58.00
2019-06-20T21:11:48.916Z,58.10
2019-06-20T21:13:53.696Z,58.20
2019-06-20T21:15:58.459Z,58.10
2019-06-20T21:18:03.213Z,58.40
2019-06-20T21:20:08.050Z,58.50
2019-06-20T21:22:12.715Z,58.40
2019-06-20T21:24:17.461Z,58.50
2019-06-20T21:26:22.241Z,58.60
2019-06-20T21:28:26.963Z,58.60
2019-06-20T21:30:31.704Z,58.90
2019-06-20T21:32:36.394Z,58.70
2019-06-20T21:34:41.128Z,58.80
2019-06-20T21:36:45.810Z,58.50
2019-06-20T21:38:50.502Z,58.70
2019-06-20T21:40:55.273Z,58.80
2019-06-20T21:42:59.935Z,58.90
2019-06-20T21:45:06.373Z,58.70
2019-06-20T21:47:11.143Z,58.80
2019-06-20T21:49:15.874Z,58.80
2019-06-20T21:51:20.572Z,58.80
2019-06-20T21:53:25.509Z,59.40
2019-06-20T21:55:30.225Z,58.70
2019-06-20T21:57:34.899Z,59.60
2019-06-20T21:59:40.700Z,59.10
2019-06-20T22:02:04.923Z,59.20
2019-06-20T22:04:09.677Z,59.10
2019-06-20T22:06:23.265Z,59.20
2019-06-20T22:08:20.801Z,59.20
2019-06-20T22:10:25.544Z,59.10
2019-06-20T22:12:30.213Z,59.20
2019-06-20T22:14:34.961Z,59.20
2019-06-20T22:16:39.640Z,59.30
2019-06-20T22:18:44.383Z,59.30
2019-06-20T22:20:49.124Z,59.50
2019-06-20T22:22:53.885Z,59.40
2019-06-20T22:24:58.567Z,59.50
2019-06-20T22:27:03.545Z,59.60
2019-06-20T22:29:08.392Z,59.70
2019-06-20T22:31:13.122Z,59.70
2019-06-20T22:33:17.791Z,59.70
2019-06-20T22:35:22.475Z,60.00
2019-06-20T22:37:27.149Z,59.70
2019-06-20T22:39:31.892Z,59.80
2019-06-20T22:41:36.670Z,59.90
2019-06-20T22:43:41.361Z,59.90
2019-06-20T22:45:46.079Z,60.00
2019-06-20T22:47:51.147Z,60.00
2019-06-20T22:49:55.880Z,60.90
2019-06-20T22:52:00.578Z,59.90
2019-06-20T22:54:05.319Z,59.90
2019-06-20T22:56:10.077Z,60.00
2019-06-20T22:58:14.824Z,59.90
2019-06-20T23:00:20.577Z,59.80
2019-06-20T23:02:25.327Z,59.80
2019-06-20T23:04:30.082Z,59.90
2019-06-20T23:06:35.818Z,59.90
2019-06-20T23:08:41.500Z,59.80
2019-06-20T23:10:46.336Z,59.90
2019-06-20T23:12:51.004Z,60.00
2019-06-20T23:14:55.754Z,60.00
2019-06-20T23:17:00.528Z,59.90
2019-06-20T23:19:06.333Z,59.90
2019-06-20T23:21:11.067Z,59.80
2019-06-20T23:23:15.750Z,59.80
2019-06-20T23:25:20.416Z,59.80
2019-06-20T23:27:25.182Z,59.80
2019-06-20T23:29:30.763Z,59.80
2019-06-20T23:31:35.481Z,59.80
2019-06-20T23:33:40.216Z,59.90
2019-06-20T23:35:44.994Z,59.90
2019-06-20T23:37:49.662Z,59.80
2019-06-20T23:39:54.347Z,59.80
2019-06-20T23:41:59.116Z,59.80
2019-06-20T23:44:03.858Z,59.80
2019-06-20T23:46:08.598Z,59.80
2019-06-20T23:48:13.291Z,59.80
2019-06-20T23:50:19.107Z,59.70
2019-06-20T23:52:25.632Z,59.90
2019-06-20T23:54:30.365Z,59.80
2019-06-20T23:56:35.140Z,59.70
2019-06-20T23:58:39.871Z,60.40
